KTCC

Tucumcari Municipal Airport

Tucumcari, New Mexico, USA
KTCC 211722Z 2118/2218 22008KT P6SM BKN045 FM212000 21011G19KT P6SM FEW070 FM220200 16012G20KT P6SM SCT080 FM220400 06014KT P6SM BKN100 FM220800 15007KT P6SM FEW100 FM221500 22014G22KT P6SM FEW070
Issued Valid From Valid To
Jun-21 @ 17:22 UTC
(52 minutes ago)
Jun-21 @ 18:00 UTC
(14 minutes ago)
Jun-22 @ 18:00 UTC
(in 24 hours)
Jun-21 @ 18:00 to Jun-21 @ 20:00
KTCC 211722Z 2118/2218 22008KT P6SM BKN045
Wind Visibility Clouds
220° at 8 knots Greater than 6 miles
  • Broken at 4,500' AGL
From Jun-21 @ 20:00 to Jun-22 @ 02:00
FM212000 21011G19KT P6SM FEW070
Wind Visibility Clouds
210° at 11 knots
 Gusting to 19 knots
Greater than 6 miles
  • Few at 7,000' AGL
From Jun-22 @ 02:00 to Jun-22 @ 04:00
FM220200 16012G20KT P6SM SCT080
Wind Visibility Clouds
160° at 12 knots
 Gusting to 20 knots
Greater than 6 miles
  • Scattered at 8,000' AGL
From Jun-22 @ 04:00 to Jun-22 @ 08:00
FM220400 06014KT P6SM BKN100
Wind Visibility Clouds
60° at 14 knots Greater than 6 miles
  • Broken at 10,000' AGL
From Jun-22 @ 08:00 to Jun-22 @ 15:00
FM220800 15007KT P6SM FEW100
Wind Visibility Clouds
150° at 7 knots Greater than 6 miles
  • Few at 10,000' AGL
From Jun-22 @ 15:00 to Jun-22 @ 18:00
FM221500 22014G22KT P6SM FEW070
Wind Visibility Clouds
220° at 14 knots
 Gusting to 22 knots
Greater than 6 miles
  • Few at 7,000' AGL
KTCC 211722Z 2118/2218 22008KT P6SM BKN045 FM212000 21011G19KT P6SM FEW070 FM220200 16012G20KT P6SM SCT080 FM220400 06014KT P6SM BKN100 FM220800 15007KT P6SM FEW100 FM221500 22014G22KT P6SM FEW070
Issued Jun-21 @ 17:22 UTC
(52 minutes ago)
Valid From Jun-21 @ 18:00 UTC
(14 minutes ago)
Valid To Jun-22 @ 18:00 UTC
(in 24 hours)
Jun-21 @ 18:00 - Jun-21 @ 20:00
Wind Visibility
220° at 8 knots Greater than 6 miles
Clouds
  • Broken at 4,500' AGL
From Jun-21 @ 20:00 - Jun-22 @ 02:00
Wind Visibility
210° at 11 knots
 Gusting to 19 knots
Greater than 6 miles
Clouds
  • Few at 7,000' AGL
From Jun-22 @ 02:00 - Jun-22 @ 04:00
Wind Visibility
160° at 12 knots
 Gusting to 20 knots
Greater than 6 miles
Clouds
  • Scattered at 8,000' AGL
From Jun-22 @ 04:00 - Jun-22 @ 08:00
Wind Visibility
60° at 14 knots Greater than 6 miles
Clouds
  • Broken at 10,000' AGL
From Jun-22 @ 08:00 - Jun-22 @ 15:00
Wind Visibility
150° at 7 knots Greater than 6 miles
Clouds
  • Few at 10,000' AGL
From Jun-22 @ 15:00 - Jun-22 @ 18:00
Wind Visibility
220° at 14 knots
 Gusting to 22 knots
Greater than 6 miles
Clouds
  • Few at 7,000' AGL